sensor_id;sensor_type;location;lat;lon;timestamp;temperature;humidity
3334;DHT22;1679;50.392;8.008;2022-08-25T00:04:01;22.40;97.50
3334;DHT22;1679;50.392;8.008;2022-08-25T00:06:29;22.30;97.70
3334;DHT22;1679;50.392;8.008;2022-08-25T00:08:54;22.30;97.80
3334;DHT22;1679;50.392;8.008;2022-08-25T00:11:25;22.30;98.00
3334;DHT22;1679;50.392;8.008;2022-08-25T00:13:55;22.30;98.10
3334;DHT22;1679;50.392;8.008;2022-08-25T00:16:22;22.20;98.30
3334;DHT22;1679;50.392;8.008;2022-08-25T00:18:55;22.20;98.50
3334;DHT22;1679;50.392;8.008;2022-08-25T00:21:22;22.10;98.70
3334;DHT22;1679;50.392;8.008;2022-08-25T00:23:48;22.10;98.90
3334;DHT22;1679;50.392;8.008;2022-08-25T00:26:16;22.10;99.20
3334;DHT22;1679;50.392;8.008;2022-08-25T00:28:43;22.00;99.70
3334;DHT22;1679;50.392;8.008;2022-08-25T00:31:15;21.90;99.50
3334;DHT22;1679;50.392;8.008;2022-08-25T00:33:43;21.80;99.90
3334;DHT22;1679;50.392;8.008;2022-08-25T00:36:09;21.80;99.90
3334;DHT22;1679;50.392;8.008;2022-08-25T00:38:38;21.70;99.90
3334;DHT22;1679;50.392;8.008;2022-08-25T00:41:05;21.80;99.90
3334;DHT22;1679;50.392;8.008;2022-08-25T00:46:03;21.60;99.90
3334;DHT22;1679;50.392;8.008;2022-08-25T00:48:28;21.60;99.90
3334;DHT22;1679;50.392;8.008;2022-08-25T00:50:54;21.60;99.90
3334;DHT22;1679;50.392;8.008;2022-08-25T00:53:20;21.50;99.90
3334;DHT22;1679;50.392;8.008;2022-08-25T00:55:46;21.40;99.90
3334;DHT22;1679;50.392;8.008;2022-08-25T00:58:17;21.30;99.90
3334;DHT22;1679;50.392;8.008;2022-08-25T01:00:48;21.10;99.90
3334;DHT22;1679;50.392;8.008;2022-08-25T01:03:14;21.00;99.90
3334;DHT22;1679;50.392;8.008;2022-08-25T01:05:40;20.90;99.90
3334;DHT22;1679;50.392;8.008;2022-08-25T01:08:08;20.80;99.90
3334;DHT22;1679;50.392;8.008;2022-08-25T01:10:36;20.60;99.90
3334;DHT22;1679;50.392;8.008;2022-08-25T01:13:07;20.50;99.90
3334;DHT22;1679;50.392;8.008;2022-08-25T01:15:34;20.50;99.90
3334;DHT22;1679;50.392;8.008;2022-08-25T01:17:59;20.40;99.90
3334;DHT22;1679;50.392;8.008;2022-08-25T01:20:28;20.40;99.90
3334;DHT22;1679;50.392;8.008;2022-08-25T01:22:56;20.20;99.90
3334;DHT22;1679;50.392;8.008;2022-08-25T01:27:59;20.10;99.90
3334;DHT22;1679;50.392;8.008;2022-08-25T01:30:25;20.00;99.90
3334;DHT22;1679;50.392;8.008;2022-08-25T01:32:52;19.90;99.90
3334;DHT22;1679;50.392;8.008;2022-08-25T01:35:17;19.80;99.90
3334;DHT22;1679;50.392;8.008;2022-08-25T01:37:44;19.80;99.90
3334;DHT22;1679;50.392;8.008;2022-08-25T01:40:11;19.80;99.90
3334;DHT22;1679;50.392;8.008;2022-08-25T01:45:26;19.60;99.90
3334;DHT22;1679;50.392;8.008;2022-08-25T01:47:52;19.50;99.90
3334;DHT22;1679;50.392;8.008;2022-08-25T01:50:18;19.50;99.90
3334;DHT22;1679;50.392;8.008;2022-08-25T01:52:59;19.50;99.90
3334;DHT22;1679;50.392;8.008;2022-08-25T01:55:27;19.60;99.90
3334;DHT22;1679;50.392;8.008;2022-08-25T01:57:54;19.60;99.90
3334;DHT22;1679;50.392;8.008;2022-08-25T02:00:20;19.70;99.90
3334;DHT22;1679;50.392;8.008;2022-08-25T02:02:48;19.60;99.90
3334;DHT22;1679;50.392;8.008;2022-08-25T02:05:14;19.50;99.90
3334;DHT22;1679;50.392;8.008;2022-08-25T02:07:42;19.50;99.90
3334;DHT22;1679;50.392;8.008;2022-08-25T02:10:09;19.50;99.90
3334;DHT22;1679;50.392;8.008;2022-08-25T02:12:36;19.50;99.90
3334;DHT22;1679;50.392;8.008;2022-08-25T02:15:05;19.40;99.90
3334;DHT22;1679;50.392;8.008;2022-08-25T02:17:31;19.40;99.90
3334;DHT22;1679;50.392;8.008;2022-08-25T02:19:57;19.30;99.90
3334;DHT22;1679;50.392;8.008;2022-08-25T02:22:23;19.30;99.90
3334;DHT22;1679;50.392;8.008;2022-08-25T02:24:49;19.20;99.90
3334;DHT22;1679;50.392;8.008;2022-08-25T02:27:15;19.10;99.90
3334;DHT22;1679;50.392;8.008;2022-08-25T02:29:41;19.00;99.90
3334;DHT22;1679;50.392;8.008;2022-08-25T02:32:07;19.00;99.90
3334;DHT22;1679;50.392;8.008;2022-08-25T02:34:33;19.00;99.90
3334;DHT22;1679;50.392;8.008;2022-08-25T02:36:59;18.90;99.90
3334;DHT22;1679;50.392;8.008;2022-08-25T02:39:25;18.80;99.90
3334;DHT22;1679;50.392;8.008;2022-08-25T02:41:50;18.70;99.90
3334;DHT22;1679;50.392;8.008;2022-08-25T02:44:16;18.70;99.90
3334;DHT22;1679;50.392;8.008;2022-08-25T02:46:42;18.70;99.90
3334;DHT22;1679;50.392;8.008;2022-08-25T02:49:07;18.60;99.90
3334;DHT22;1679;50.392;8.008;2022-08-25T02:51:34;18.70;99.90
3334;DHT22;1679;50.392;8.008;2022-08-25T02:54:02;18.80;99.90
3334;DHT22;1679;50.392;8.008;2022-08-25T02:56:31;18.70;99.90
3334;DHT22;1679;50.392;8.008;2022-08-25T02:58:58;18.70;99.90
3334;DHT22;1679;50.392;8.008;2022-08-25T03:01:24;18.60;99.90
3334;DHT22;1679;50.392;8.008;2022-08-25T03:03:49;18.60;99.90
3334;DHT22;1679;50.392;8.008;2022-08-25T03:06:18;18.60;99.90
3334;DHT22;1679;50.392;8.008;2022-08-25T03:08:45;18.60;99.90
3334;DHT22;1679;50.392;8.008;2022-08-25T03:11:12;18.60;99.90
3334;DHT22;1679;50.392;8.008;2022-08-25T03:13:38;18.60;99.90
3334;DHT22;1679;50.392;8.008;2022-08-25T03:16:06;18.60;99.90
3334;DHT22;1679;50.392;8.008;2022-08-25T03:18:33;18.50;99.90
3334;DHT22;1679;50.392;8.008;2022-08-25T03:20:59;18.40;99.90
3334;DHT22;1679;50.392;8.008;2022-08-25T03:23:25;18.40;99.90
3334;DHT22;1679;50.392;8.008;2022-08-25T03:25:53;18.30;99.90
3334;DHT22;1679;50.392;8.008;2022-08-25T03:28:38;18.30;99.90
3334;DHT22;1679;50.392;8.008;2022-08-25T03:31:03;18.20;99.90
3334;DHT22;1679;50.392;8.008;2022-08-25T03:33:31;18.20;99.90
3334;DHT22;1679;50.392;8.008;2022-08-25T03:35:57;18.10;99.90
3334;DHT22;1679;50.392;8.008;2022-08-25T03:38:24;18.10;99.90
3334;DHT22;1679;50.392;8.008;2022-08-25T03:40:50;18.10;99.90
3334;DHT22;1679;50.392;8.008;2022-08-25T03:43:17;18.10;99.90
3334;DHT22;1679;50.392;8.008;2022-08-25T03:45:44;18.00;99.90
3334;DHT22;1679;50.392;8.008;2022-08-25T03:48:10;18.00;99.90
3334;DHT22;1679;50.392;8.008;2022-08-25T03:50:36;18.00;99.90
3334;DHT22;1679;50.392;8.008;2022-08-25T03:53:07;17.90;99.90
3334;DHT22;1679;50.392;8.008;2022-08-25T03:55:33;17.90;99.90
3334;DHT22;1679;50.392;8.008;2022-08-25T03:57:58;17.90;99.90
3334;DHT22;1679;50.392;8.008;2022-08-25T04:00:24;17.90;99.90
3334;DHT22;1679;50.392;8.008;2022-08-25T04:02:49;17.90;99.90
3334;DHT22;1679;50.392;8.008;2022-08-25T04:05:15;17.80;99.90
3334;DHT22;1679;50.392;8.008;2022-08-25T04:07:41;17.80;99.90
3334;DHT22;1679;50.392;8.008;2022-08-25T04:10:08;17.80;99.90
3334;DHT22;1679;50.392;8.008;2022-08-25T04:12:35;17.70;99.90
3334;DHT22;1679;50.392;8.008;2022-08-25T04:15:03;17.70;99.90
3334;DHT22;1679;50.392;8.008;2022-08-25T04:17:30;17.60;99.90
3334;DHT22;1679;50.392;8.008;2022-08-25T04:19:56;17.60;99.90
3334;DHT22;1679;50.392;8.008;2022-08-25T04:22:21;17.60;99.90
3334;DHT22;1679;50.392;8.008;2022-08-25T04:24:47;17.50;99.90
3334;DHT22;1679;50.392;8.008;2022-08-25T04:27:13;17.50;99.90
3334;DHT22;1679;50.392;8.008;2022-08-25T04:29:38;17.50;99.90
3334;DHT22;1679;50.392;8.008;2022-08-25T04:32:04;17.50;99.90
3334;DHT22;1679;50.392;8.008;2022-08-25T04:34:29;17.60;99.90
3334;DHT22;1679;50.392;8.008;2022-08-25T04:36:56;17.60;99.90
3334;DHT22;1679;50.392;8.008;2022-08-25T04:39:22;17.60;99.90
3334;DHT22;1679;50.392;8.008;2022-08-25T04:41:48;17.60;99.90
3334;DHT22;1679;50.392;8.008;2022-08-25T04:44:14;17.50;99.90
3334;DHT22;1679;50.392;8.008;2022-08-25T04:46:39;17.50;99.90
3334;DHT22;1679;50.392;8.008;2022-08-25T04:49:05;17.50;99.90
3334;DHT22;1679;50.392;8.008;2022-08-25T04:51:36;17.50;99.90
3334;DHT22;1679;50.392;8.008;2022-08-25T04:54:06;17.60;99.90
3334;DHT22;1679;50.392;8.008;2022-08-25T04:56:33;17.60;99.90
3334;DHT22;1679;50.392;8.008;2022-08-25T04:59:06;17.60;99.90
3334;DHT22;1679;50.392;8.008;2022-08-25T05:01:32;17.60;99.90
3334;DHT22;1679;50.392;8.008;2022-08-25T05:04:01;17.70;99.90
3334;DHT22;1679;50.392;8.008;2022-08-25T05:06:28;17.70;99.90
3334;DHT22;1679;50.392;8.008;2022-08-25T05:08:54;17.80;99.90
3334;DHT22;1679;50.392;8.008;2022-08-25T05:11:20;17.90;99.90
3334;DHT22;1679;50.392;8.008;2022-08-25T05:13:49;17.90;99.90
3334;DHT22;1679;50.392;8.008;2022-08-25T05:16:15;17.90;99.90
3334;DHT22;1679;50.392;8.008;2022-08-25T05:18:42;17.90;99.90
3334;DHT22;1679;50.392;8.008;2022-08-25T05:21:14;17.90;99.90
3334;DHT22;1679;50.392;8.008;2022-08-25T05:23:40;18.00;99.90
3334;DHT22;1679;50.392;8.008;2022-08-25T05:26:18;18.10;99.90
3334;DHT22;1679;50.392;8.008;2022-08-25T05:28:44;18.10;99.90
3334;DHT22;1679;50.392;8.008;2022-08-25T05:31:12;18.20;99.90
3334;DHT22;1679;50.392;8.008;2022-08-25T05:33:39;18.20;99.90
3334;DHT22;1679;50.392;8.008;2022-08-25T05:36:06;18.30;99.90
3334;DHT22;1679;50.392;8.008;2022-08-25T05:38:32;18.40;99.90
3334;DHT22;1679;50.392;8.008;2022-08-25T05:40:59;18.50;99.90
3334;DHT22;1679;50.392;8.008;2022-08-25T05:43:25;18.60;99.90
3334;DHT22;1679;50.392;8.008;2022-08-25T05:45:58;18.70;99.90
3334;DHT22;1679;50.392;8.008;2022-08-25T05:48:24;18.70;99.90
3334;DHT22;1679;50.392;8.008;2022-08-25T05:50:55;18.80;99.90
3334;DHT22;1679;50.392;8.008;2022-08-25T05:53:23;18.90;99.90
3334;DHT22;1679;50.392;8.008;2022-08-25T05:55:51;19.00;99.90
3334;DHT22;1679;50.392;8.008;2022-08-25T05:58:18;19.10;99.90
3334;DHT22;1679;50.392;8.008;2022-08-25T06:00:44;19.20;99.90
3334;DHT22;1679;50.392;8.008;2022-08-25T06:03:10;19.20;99.90
3334;DHT22;1679;50.392;8.008;2022-08-25T06:05:37;19.20;99.90
3334;DHT22;1679;50.392;8.008;2022-08-25T06:08:04;19.20;99.90
3334;DHT22;1679;50.392;8.008;2022-08-25T06:10:30;19.30;99.90
3334;DHT22;1679;50.392;8.008;2022-08-25T06:12:55;19.30;99.90
3334;DHT22;1679;50.392;8.008;2022-08-25T06:15:22;19.40;99.90
3334;DHT22;1679;50.392;8.008;2022-08-25T06:17:50;19.40;99.90
3334;DHT22;1679;50.392;8.008;2022-08-25T06:20:18;19.50;99.90
3334;DHT22;1679;50.392;8.008;2022-08-25T06:22:44;19.60;99.90
3334;DHT22;1679;50.392;8.008;2022-08-25T06:25:16;19.70;99.90
3334;DHT22;1679;50.392;8.008;2022-08-25T06:27:42;19.80;99.90
3334;DHT22;1679;50.392;8.008;2022-08-25T06:30:10;20.00;99.90
3334;DHT22;1679;50.392;8.008;2022-08-25T06:32:38;20.00;99.90
3334;DHT22;1679;50.392;8.008;2022-08-25T06:35:05;20.10;99.90
3334;DHT22;1679;50.392;8.008;2022-08-25T06:37:32;20.20;99.90
3334;DHT22;1679;50.392;8.008;2022-08-25T06:39:58;20.20;99.90
3334;DHT22;1679;50.392;8.008;2022-08-25T06:42:23;20.30;99.90
3334;DHT22;1679;50.392;8.008;2022-08-25T06:44:49;20.30;99.90
3334;DHT22;1679;50.392;8.008;2022-08-25T06:47:15;20.40;99.90
3334;DHT22;1679;50.392;8.008;2022-08-25T06:49:42;20.40;99.90
3334;DHT22;1679;50.392;8.008;2022-08-25T06:52:10;20.40;99.90
3334;DHT22;1679;50.392;8.008;2022-08-25T06:54:36;20.30;99.90
3334;DHT22;1679;50.392;8.008;2022-08-25T06:57:02;20.40;99.90
3334;DHT22;1679;50.392;8.008;2022-08-25T06:59:28;20.60;99.90
3334;DHT22;1679;50.392;8.008;2022-08-25T07:01:56;20.60;99.90
3334;DHT22;1679;50.392;8.008;2022-08-25T07:04:22;20.70;99.90
3334;DHT22;1679;50.392;8.008;2022-08-25T07:06:48;20.70;99.90
3334;DHT22;1679;50.392;8.008;2022-08-25T07:09:13;20.80;99.90
3334;DHT22;1679;50.392;8.008;2022-08-25T07:11:40;20.90;99.90
3334;DHT22;1679;50.392;8.008;2022-08-25T07:14:07;21.10;99.90
3334;DHT22;1679;50.392;8.008;2022-08-25T07:16:34;21.30;99.90
3334;DHT22;1679;50.392;8.008;2022-08-25T07:19:00;21.40;99.90
3334;DHT22;1679;50.392;8.008;2022-08-25T07:21:28;21.60;99.90
3334;DHT22;1679;50.392;8.008;2022-08-25T07:23:54;21.80;99.90
3334;DHT22;1679;50.392;8.008;2022-08-25T07:26:25;22.10;99.90
3334;DHT22;1679;50.392;8.008;2022-08-25T07:28:51;22.40;99.90
3334;DHT22;1679;50.392;8.008;2022-08-25T07:31:17;22.90;99.90
3334;DHT22;1679;50.392;8.008;2022-08-25T07:33:44;23.60;99.90
3334;DHT22;1679;50.392;8.008;2022-08-25T07:36:33;24.30;99.90
3334;DHT22;1679;50.392;8.008;2022-08-25T07:38:59;24.80;99.90
3334;DHT22;1679;50.392;8.008;2022-08-25T07:41:30;25.20;99.90
3334;DHT22;1679;50.392;8.008;2022-08-25T07:43:58;25.20;99.90
3334;DHT22;1679;50.392;8.008;2022-08-25T07:46:24;25.10;99.90
3334;DHT22;1679;50.392;8.008;2022-08-25T07:48:51;25.40;99.90
3334;DHT22;1679;50.392;8.008;2022-08-25T07:51:16;26.10;99.90
3334;DHT22;1679;50.392;8.008;2022-08-25T07:53:42;26.90;99.90
3334;DHT22;1679;50.392;8.008;2022-08-25T07:56:11;26.80;99.90
3334;DHT22;1679;50.392;8.008;2022-08-25T07:58:38;26.80;99.90
3334;DHT22;1679;50.392;8.008;2022-08-25T08:01:04;27.40;99.90
3334;DHT22;1679;50.392;8.008;2022-08-25T08:03:33;27.50;99.90
3334;DHT22;1679;50.392;8.008;2022-08-25T08:05:59;27.30;99.90
3334;DHT22;1679;50.392;8.008;2022-08-25T08:08:26;27.60;99.90
3334;DHT22;1679;50.392;8.008;2022-08-25T08:10:53;28.10;99.90
3334;DHT22;1679;50.392;8.008;2022-08-25T08:13:19;28.60;99.90
3334;DHT22;1679;50.392;8.008;2022-08-25T08:15:45;28.50;99.90
3334;DHT22;1679;50.392;8.008;2022-08-25T08:18:11;28.80;99.90
3334;DHT22;1679;50.392;8.008;2022-08-25T08:20:37;29.00;99.90
3334;DHT22;1679;50.392;8.008;2022-08-25T08:23:02;28.90;99.90
3334;DHT22;1679;50.392;8.008;2022-08-25T08:25:33;29.00;99.90
3334;DHT22;1679;50.392;8.008;2022-08-25T08:27:58;29.00;99.90
3334;DHT22;1679;50.392;8.008;2022-08-25T08:30:24;28.50;99.90
3334;DHT22;1679;50.392;8.008;2022-08-25T08:32:50;28.20;99.90
3334;DHT22;1679;50.392;8.008;2022-08-25T08:35:17;28.30;99.90
3334;DHT22;1679;50.392;8.008;2022-08-25T08:37:47;28.20;99.90
3334;DHT22;1679;50.392;8.008;2022-08-25T08:40:17;28.10;99.90
3334;DHT22;1679;50.392;8.008;2022-08-25T08:43:08;28.00;99.90
3334;DHT22;1679;50.392;8.008;2022-08-25T08:45:44;28.10;99.90
3334;DHT22;1679;50.392;8.008;2022-08-25T08:48:32;28.30;99.90
3334;DHT22;1679;50.392;8.008;2022-08-25T08:53:56;28.80;99.90
3334;DHT22;1679;50.392;8.008;2022-08-25T08:56:44;29.20;99.90
3334;DHT22;1679;50.392;8.008;2022-08-25T08:59:23;29.70;99.90
3334;DHT22;1679;50.392;8.008;2022-08-25T09:01:56;29.90;99.90
3334;DHT22;1679;50.392;8.008;2022-08-25T09:04:40;29.80;99.90
3334;DHT22;1679;50.392;8.008;2022-08-25T09:07:16;29.60;99.90
3334;DHT22;1679;50.392;8.008;2022-08-25T09:09:43;29.60;99.90
3334;DHT22;1679;50.392;8.008;2022-08-25T09:15:37;30.30;99.90
3334;DHT22;1679;50.392;8.008;2022-08-25T09:18:50;30.30;99.90
3334;DHT22;1679;50.392;8.008;2022-08-25T09:21:29;30.20;99.90
3334;DHT22;1679;50.392;8.008;2022-08-25T09:26:28;30.20;99.90
3334;DHT22;1679;50.392;8.008;2022-08-25T09:29:07;30.30;99.90
3334;DHT22;1679;50.392;8.008;2022-08-25T09:31:36;30.30;99.90
3334;DHT22;1679;50.392;8.008;2022-08-25T09:34:05;29.90;99.90
3334;DHT22;1679;50.392;8.008;2022-08-25T09:36:32;29.50;99.90
3334;DHT22;1679;50.392;8.008;2022-08-25T09:38:58;29.60;99.90
3334;DHT22;1679;50.392;8.008;2022-08-25T09:41:48;29.90;99.90
3334;DHT22;1679;50.392;8.008;2022-08-25T09:44:38;30.20;99.90
3334;DHT22;1679;50.392;8.008;2022-08-25T09:49:45;30.80;99.90
3334;DHT22;1679;50.392;8.008;2022-08-25T09:57:52;30.50;99.70
3334;DHT22;1679;50.392;8.008;2022-08-25T10:00:31;30.50;99.90
3334;DHT22;1679;50.392;8.008;2022-08-25T10:03:12;30.20;99.70
3334;DHT22;1679;50.392;8.008;2022-08-25T10:06:11;30.20;99.80
3334;DHT22;1679;50.392;8.008;2022-08-25T10:11:38;30.40;99.70
3334;DHT22;1679;50.392;8.008;2022-08-25T10:16:50;31.00;98.70
3334;DHT22;1679;50.392;8.008;2022-08-25T10:19:28;30.80;98.60
3334;DHT22;1679;50.392;8.008;2022-08-25T10:22:09;30.80;97.90
3334;DHT22;1679;50.392;8.008;2022-08-25T10:24:35;30.70;98.10
3334;DHT22;1679;50.392;8.008;2022-08-25T10:30:09;30.60;97.30
3334;DHT22;1679;50.392;8.008;2022-08-25T10:35:28;30.80;96.40
3334;DHT22;1679;50.392;8.008;2022-08-25T10:40:53;30.80;96.50
3334;DHT22;1679;50.392;8.008;2022-08-25T10:43:40;30.70;95.90
3334;DHT22;1679;50.392;8.008;2022-08-25T10:46:34;30.20;96.80
3334;DHT22;1679;50.392;8.008;2022-08-25T10:49:12;30.10;97.60
3334;DHT22;1679;50.392;8.008;2022-08-25T10:51:49;30.30;97.40
3334;DHT22;1679;50.392;8.008;2022-08-25T10:54:45;30.60;97.30
3334;DHT22;1679;50.392;8.008;2022-08-25T11:00:19;30.80;96.80
3334;DHT22;1679;50.392;8.008;2022-08-25T11:05:53;30.10;97.10
3334;DHT22;1679;50.392;8.008;2022-08-25T11:08:43;30.20;97.50
3334;DHT22;1679;50.392;8.008;2022-08-25T11:11:13;30.20;97.00
3334;DHT22;1679;50.392;8.008;2022-08-25T11:13:54;30.00;97.50
3334;DHT22;1679;50.392;8.008;2022-08-25T11:16:42;30.20;97.00
3334;DHT22;1679;50.392;8.008;2022-08-25T11:19:21;30.00;97.10
3334;DHT22;1679;50.392;8.008;2022-08-25T11:27:32;29.20;97.80
3334;DHT22;1679;50.392;8.008;2022-08-25T11:30:10;28.90;97.90
3334;DHT22;1679;50.392;8.008;2022-08-25T11:32:38;28.80;97.90
3334;DHT22;1679;50.392;8.008;2022-08-25T11:35:10;28.70;98.40
3334;DHT22;1679;50.392;8.008;2022-08-25T11:37:58;28.90;98.10
3334;DHT22;1679;50.392;8.008;2022-08-25T11:40:49;29.20;97.90
3334;DHT22;1679;50.392;8.008;2022-08-25T11:43:42;29.40;97.80
3334;DHT22;1679;50.392;8.008;2022-08-25T11:51:31;29.60;96.60
3334;DHT22;1679;50.392;8.008;2022-08-25T11:54:14;29.50;96.90
3334;DHT22;1679;50.392;8.008;2022-08-25T11:56:41;29.60;96.80
3334;DHT22;1679;50.392;8.008;2022-08-25T12:02:38;29.90;95.80
3334;DHT22;1679;50.392;8.008;2022-08-25T12:08:00;30.30;96.00
3334;DHT22;1679;50.392;8.008;2022-08-25T12:10:55;30.50;95.10
3334;DHT22;1679;50.392;8.008;2022-08-25T12:13:41;30.60;94.90
3334;DHT22;1679;50.392;8.008;2022-08-25T12:19:29;30.80;94.20
3334;DHT22;1679;50.392;8.008;2022-08-25T12:30:12;30.20;94.50
3334;DHT22;1679;50.392;8.008;2022-08-25T12:32:58;30.20;94.10
3334;DHT22;1679;50.392;8.008;2022-08-25T12:35:32;30.40;94.10
3334;DHT22;1679;50.392;8.008;2022-08-25T12:38:08;30.60;93.50
3334;DHT22;1679;50.392;8.008;2022-08-25T12:40:56;30.70;93.60
3334;DHT22;1679;50.392;8.008;2022-08-25T12:43:29;30.80;93.60
3334;DHT22;1679;50.392;8.008;2022-08-25T12:49:01;30.90;93.40
3334;DHT22;1679;50.392;8.008;2022-08-25T12:51:47;31.00;93.50
3334;DHT22;1679;50.392;8.008;2022-08-25T13:00:00;31.10;92.70
3334;DHT22;1679;50.392;8.008;2022-08-25T13:16:06;31.40;93.30
3334;DHT22;1679;50.392;8.008;2022-08-25T13:18:35;31.20;93.60
3334;DHT22;1679;50.392;8.008;2022-08-25T13:23:41;31.40;92.70
3334;DHT22;1679;50.392;8.008;2022-08-25T13:26:13;31.40;92.70
3334;DHT22;1679;50.392;8.008;2022-08-25T13:28:39;31.40;92.30
3334;DHT22;1679;50.392;8.008;2022-08-25T13:31:12;31.20;92.60
3334;DHT22;1679;50.392;8.008;2022-08-25T13:33:52;31.20;92.40
3334;DHT22;1679;50.392;8.008;2022-08-25T13:36:19;31.10;92.50
3334;DHT22;1679;50.392;8.008;2022-08-25T13:39:22;31.00;92.40
3334;DHT22;1679;50.392;8.008;2022-08-25T13:41:51;30.90;92.80
3334;DHT22;1679;50.392;8.008;2022-08-25T13:44:19;30.80;93.00
3334;DHT22;1679;50.392;8.008;2022-08-25T13:46:46;30.80;92.80
3334;DHT22;1679;50.392;8.008;2022-08-25T13:49:24;30.90;93.20
3334;DHT22;1679;50.392;8.008;2022-08-25T13:51:52;30.90;93.40
3334;DHT22;1679;50.392;8.008;2022-08-25T13:54:29;30.90;93.10
3334;DHT22;1679;50.392;8.008;2022-08-25T13:59:40;30.80;93.10
3334;DHT22;1679;50.392;8.008;2022-08-25T14:02:10;30.90;93.10
3334;DHT22;1679;50.392;8.008;2022-08-25T14:07:31;30.80;93.00
3334;DHT22;1679;50.392;8.008;2022-08-25T14:10:02;30.50;93.10
3334;DHT22;1679;50.392;8.008;2022-08-25T14:12:43;30.40;93.40
3334;DHT22;1679;50.392;8.008;2022-08-25T14:17:43;29.90;93.90
3334;DHT22;1679;50.392;8.008;2022-08-25T14:20:24;29.90;93.60
3334;DHT22;1679;50.392;8.008;2022-08-25T14:22:58;29.90;93.90
3334;DHT22;1679;50.392;8.008;2022-08-25T14:25:25;29.90;94.00
3334;DHT22;1679;50.392;8.008;2022-08-25T14:27:57;29.90;93.70
3334;DHT22;1679;50.392;8.008;2022-08-25T14:30:22;30.00;93.80
3334;DHT22;1679;50.392;8.008;2022-08-25T14:32:49;30.00;93.80
3334;DHT22;1679;50.392;8.008;2022-08-25T14:35:16;30.00;94.00
3334;DHT22;1679;50.392;8.008;2022-08-25T14:37:43;30.20;93.80
3334;DHT22;1679;50.392;8.008;2022-08-25T14:40:10;30.30;94.30
3334;DHT22;1679;50.392;8.008;2022-08-25T14:42:38;30.50;94.20
3334;DHT22;1679;50.392;8.008;2022-08-25T14:45:05;30.60;93.70
3334;DHT22;1679;50.392;8.008;2022-08-25T14:47:32;30.60;93.50
3334;DHT22;1679;50.392;8.008;2022-08-25T14:49:59;30.60;93.30
3334;DHT22;1679;50.392;8.008;2022-08-25T14:52:27;30.70;93.10
3334;DHT22;1679;50.392;8.008;2022-08-25T14:54:54;30.70;92.70
3334;DHT22;1679;50.392;8.008;2022-08-25T14:57:21;30.80;92.10
3334;DHT22;1679;50.392;8.008;2022-08-25T14:59:47;30.90;92.40
3334;DHT22;1679;50.392;8.008;2022-08-25T15:02:15;31.00;92.60
3334;DHT22;1679;50.392;8.008;2022-08-25T15:04:49;31.00;92.60
3334;DHT22;1679;50.392;8.008;2022-08-25T15:07:15;31.10;92.60
3334;DHT22;1679;50.392;8.008;2022-08-25T15:10:00;31.20;92.30
3334;DHT22;1679;50.392;8.008;2022-08-25T15:12:25;31.10;92.60
3334;DHT22;1679;50.392;8.008;2022-08-25T15:14:52;31.10;92.70
3334;DHT22;1679;50.392;8.008;2022-08-25T15:17:18;31.10;92.60
3334;DHT22;1679;50.392;8.008;2022-08-25T15:19:43;31.00;92.70
3334;DHT22;1679;50.392;8.008;2022-08-25T15:22:09;30.90;92.40
3334;DHT22;1679;50.392;8.008;2022-08-25T15:24:35;30.80;92.20
3334;DHT22;1679;50.392;8.008;2022-08-25T15:27:04;30.80;91.90
3334;DHT22;1679;50.392;8.008;2022-08-25T15:29:32;30.80;92.30
3334;DHT22;1679;50.392;8.008;2022-08-25T15:31:59;30.70;92.20
3334;DHT22;1679;50.392;8.008;2022-08-25T15:34:25;30.70;92.20
3334;DHT22;1679;50.392;8.008;2022-08-25T15:36:51;30.70;92.50
3334;DHT22;1679;50.392;8.008;2022-08-25T15:39:17;30.60;92.30
3334;DHT22;1679;50.392;8.008;2022-08-25T15:41:44;30.60;92.70
3334;DHT22;1679;50.392;8.008;2022-08-25T15:44:12;30.50;92.80
3334;DHT22;1679;50.392;8.008;2022-08-25T15:46:39;30.20;92.80
3334;DHT22;1679;50.392;8.008;2022-08-25T15:49:05;30.20;93.10
3334;DHT22;1679;50.392;8.008;2022-08-25T15:51:33;30.20;93.10
3334;DHT22;1679;50.392;8.008;2022-08-25T15:53:59;30.10;93.10
3334;DHT22;1679;50.392;8.008;2022-08-25T15:56:25;30.10;93.50
3334;DHT22;1679;50.392;8.008;2022-08-25T15:58:52;30.20;93.30
3334;DHT22;1679;50.392;8.008;2022-08-25T16:01:21;30.20;93.40
3334;DHT22;1679;50.392;8.008;2022-08-25T16:03:48;30.10;93.10
3334;DHT22;1679;50.392;8.008;2022-08-25T16:06:15;30.00;93.30
3334;DHT22;1679;50.392;8.008;2022-08-25T16:08:40;30.10;93.80
3334;DHT22;1679;50.392;8.008;2022-08-25T16:11:21;30.00;93.60
3334;DHT22;1679;50.392;8.008;2022-08-25T16:13:47;30.00;94.00
3334;DHT22;1679;50.392;8.008;2022-08-25T16:16:16;30.10;93.70
3334;DHT22;1679;50.392;8.008;2022-08-25T16:18:43;30.20;93.70
3334;DHT22;1679;50.392;8.008;2022-08-25T16:21:10;30.20;93.60
3334;DHT22;1679;50.392;8.008;2022-08-25T16:23:37;30.20;93.40
3334;DHT22;1679;50.392;8.008;2022-08-25T16:26:05;30.10;93.40
3334;DHT22;1679;50.392;8.008;2022-08-25T16:28:32;30.10;93.80
3334;DHT22;1679;50.392;8.008;2022-08-25T16:30:58;30.10;93.80
3334;DHT22;1679;50.392;8.008;2022-08-25T16:33:23;30.10;93.80
3334;DHT22;1679;50.392;8.008;2022-08-25T16:35:49;30.10;93.80
3334;DHT22;1679;50.392;8.008;2022-08-25T16:38:15;30.10;93.60
3334;DHT22;1679;50.392;8.008;2022-08-25T16:40:41;30.10;93.70
3334;DHT22;1679;50.392;8.008;2022-08-25T16:43:09;30.00;93.50
3334;DHT22;1679;50.392;8.008;2022-08-25T16:45:35;30.00;93.50
3334;DHT22;1679;50.392;8.008;2022-08-25T16:48:02;29.90;93.80
3334;DHT22;1679;50.392;8.008;2022-08-25T16:50:30;29.90;93.70
3334;DHT22;1679;50.392;8.008;2022-08-25T16:52:57;29.80;93.80
3334;DHT22;1679;50.392;8.008;2022-08-25T16:55:42;29.80;93.80
3334;DHT22;1679;50.392;8.008;2022-08-25T16:58:07;29.70;93.90
3334;DHT22;1679;50.392;8.008;2022-08-25T17:00:36;29.70;94.00
3334;DHT22;1679;50.392;8.008;2022-08-25T17:03:03;29.60;93.70
3334;DHT22;1679;50.392;8.008;2022-08-25T17:05:32;29.60;94.00
3334;DHT22;1679;50.392;8.008;2022-08-25T17:08:03;29.50;94.10
3334;DHT22;1679;50.392;8.008;2022-08-25T17:10:47;29.40;94.20
3334;DHT22;1679;50.392;8.008;2022-08-25T17:13:13;29.40;94.30
3334;DHT22;1679;50.392;8.008;2022-08-25T17:15:42;29.30;94.10
3334;DHT22;1679;50.392;8.008;2022-08-25T17:18:08;29.30;94.10
3334;DHT22;1679;50.392;8.008;2022-08-25T17:20:36;29.20;94.30
3334;DHT22;1679;50.392;8.008;2022-08-25T17:23:03;29.10;94.70
3334;DHT22;1679;50.392;8.008;2022-08-25T17:25:34;29.10;94.70
3334;DHT22;1679;50.392;8.008;2022-08-25T17:27:59;29.00;94.60
3334;DHT22;1679;50.392;8.008;2022-08-25T17:30:25;28.90;94.80
3334;DHT22;1679;50.392;8.008;2022-08-25T17:32:50;28.80;94.70
3334;DHT22;1679;50.392;8.008;2022-08-25T17:35:16;28.70;95.00
3334;DHT22;1679;50.392;8.008;2022-08-25T17:37:41;28.70;95.90
3334;DHT22;1679;50.392;8.008;2022-08-25T17:40:07;28.70;95.10
3334;DHT22;1679;50.392;8.008;2022-08-25T17:42:34;28.50;95.50
3334;DHT22;1679;50.392;8.008;2022-08-25T17:45:01;28.40;95.00
3334;DHT22;1679;50.392;8.008;2022-08-25T17:47:26;28.30;95.00
3334;DHT22;1679;50.392;8.008;2022-08-25T17:49:52;28.30;95.00
3334;DHT22;1679;50.392;8.008;2022-08-25T17:52:19;28.30;94.80
3334;DHT22;1679;50.392;8.008;2022-08-25T17:54:44;28.30;95.40
3334;DHT22;1679;50.392;8.008;2022-08-25T17:57:12;28.20;95.00
3334;DHT22;1679;50.392;8.008;2022-08-25T17:59:38;28.20;96.20
3334;DHT22;1679;50.392;8.008;2022-08-25T18:02:04;28.10;95.90
3334;DHT22;1679;50.392;8.008;2022-08-25T18:04:30;28.00;96.40
3334;DHT22;1679;50.392;8.008;2022-08-25T18:06:55;27.90;96.40